Zapala, Argentina
Current Conditions -  °F | °C
As of 12:00 PM on Wednesday 22 Oct 2014 (Local Time) from SAZN Reporting Station
Clear Clear  
Wind Chill: 77°   Ceiling: Unl
Heat Index: 78°   Visibility: 6mi
Dew Point: 43°   Wind: 9mph
Humidity: 29%   Direction: 230°SW
Pressure: 29.97"   Gusts: NA
Location:  38.9°S, 70.07°W
Report Text: SAZN 221500Z 23008KT CAVOK 25/06 Q1015
Loading
Personal Weather Stations






























Interactive Weather Map
Tropical Storm Tracking
New forecast layout! Learn more

10-Day Weather Forecast

Advertisements
Track Severe Weather on mobile